sensor_id;sensor_type;location;lat;lon;timestamp;temperature;humidity
76537;DHT22;65381;51.254;15.592;2023-04-09T00:01:18;3.80;67.60
76537;DHT22;65381;51.254;15.592;2023-04-09T00:03:47;3.70;67.70
76537;DHT22;65381;51.254;15.592;2023-04-09T00:06:15;3.70;67.70
76537;DHT22;65381;51.254;15.592;2023-04-09T00:08:43;3.70;67.80
76537;DHT22;65381;51.254;15.592;2023-04-09T00:11:11;3.70;67.80
76537;DHT22;65381;51.254;15.592;2023-04-09T00:13:40;3.60;67.80
76537;DHT22;65381;51.254;15.592;2023-04-09T00:16:07;3.60;67.90
76537;DHT22;65381;51.254;15.592;2023-04-09T00:18:36;3.70;67.90
76537;DHT22;65381;51.254;15.592;2023-04-09T00:21:04;3.60;67.80
76537;DHT22;65381;51.254;15.592;2023-04-09T00:23:33;3.60;67.90
76537;DHT22;65381;51.254;15.592;2023-04-09T00:26:02;3.60;67.90
76537;DHT22;65381;51.254;15.592;2023-04-09T00:28:30;3.60;68.00
76537;DHT22;65381;51.254;15.592;2023-04-09T00:30:58;3.60;68.00
76537;DHT22;65381;51.254;15.592;2023-04-09T00:33:27;3.60;67.90
76537;DHT22;65381;51.254;15.592;2023-04-09T00:35:55;3.60;67.90
76537;DHT22;65381;51.254;15.592;2023-04-09T00:38:23;3.50;67.90
76537;DHT22;65381;51.254;15.592;2023-04-09T00:40:51;3.50;67.90
76537;DHT22;65381;51.254;15.592;2023-04-09T00:43:19;3.50;68.00
76537;DHT22;65381;51.254;15.592;2023-04-09T00:45:48;3.50;68.00
76537;DHT22;65381;51.254;15.592;2023-04-09T00:48:16;3.40;68.20
76537;DHT22;65381;51.254;15.592;2023-04-09T00:50:44;3.40;68.20
76537;DHT22;65381;51.254;15.592;2023-04-09T00:53:13;3.50;68.20
76537;DHT22;65381;51.254;15.592;2023-04-09T00:55:41;3.50;68.20
76537;DHT22;65381;51.254;15.592;2023-04-09T00:58:09;3.40;68.20
76537;DHT22;65381;51.254;15.592;2023-04-09T01:00:37;3.50;68.20
76537;DHT22;65381;51.254;15.592;2023-04-09T01:03:06;3.50;68.20
76537;DHT22;65381;51.254;15.592;2023-04-09T01:08:31;3.40;68.20
76537;DHT22;65381;51.254;15.592;2023-04-09T01:11:08;3.30;68.20
76537;DHT22;65381;51.254;15.592;2023-04-09T01:13:53;3.30;68.40
76537;DHT22;65381;51.254;15.592;2023-04-09T01:16:22;3.30;68.20
76537;DHT22;65381;51.254;15.592;2023-04-09T01:19:00;3.20;68.30
76537;DHT22;65381;51.254;15.592;2023-04-09T01:21:31;3.10;68.40
76537;DHT22;65381;51.254;15.592;2023-04-09T01:24:29;3.10;68.40
76537;DHT22;65381;51.254;15.592;2023-04-09T01:27:05;3.20;68.50
76537;DHT22;65381;51.254;15.592;2023-04-09T01:29:58;3.20;68.40
76537;DHT22;65381;51.254;15.592;2023-04-09T01:32:27;3.10;68.40
76537;DHT22;65381;51.254;15.592;2023-04-09T01:34:59;3.20;68.40
76537;DHT22;65381;51.254;15.592;2023-04-09T01:37:28;3.20;68.50
76537;DHT22;65381;51.254;15.592;2023-04-09T01:39:56;3.20;68.50
76537;DHT22;65381;51.254;15.592;2023-04-09T01:42:24;3.10;68.50
76537;DHT22;65381;51.254;15.592;2023-04-09T01:44:53;3.20;68.60
76537;DHT22;65381;51.254;15.592;2023-04-09T01:47:21;3.20;68.60
76537;DHT22;65381;51.254;15.592;2023-04-09T01:49:50;3.20;68.60
76537;DHT22;65381;51.254;15.592;2023-04-09T01:52:20;3.20;68.60
76537;DHT22;65381;51.254;15.592;2023-04-09T01:54:48;3.20;68.60
76537;DHT22;65381;51.254;15.592;2023-04-09T01:57:16;3.10;68.70
76537;DHT22;65381;51.254;15.592;2023-04-09T01:59:45;3.20;68.70
76537;DHT22;65381;51.254;15.592;2023-04-09T02:02:17;3.10;68.70
76537;DHT22;65381;51.254;15.592;2023-04-09T02:04:48;3.10;68.80
76537;DHT22;65381;51.254;15.592;2023-04-09T02:09:56;3.10;68.90
76537;DHT22;65381;51.254;15.592;2023-04-09T02:12:29;3.10;68.90
76537;DHT22;65381;51.254;15.592;2023-04-09T02:14:59;3.10;68.80
76537;DHT22;65381;51.254;15.592;2023-04-09T02:17:28;3.10;68.80
76537;DHT22;65381;51.254;15.592;2023-04-09T02:19:57;3.10;68.80
76537;DHT22;65381;51.254;15.592;2023-04-09T02:22:24;3.00;68.90
76537;DHT22;65381;51.254;15.592;2023-04-09T02:24:53;3.00;69.00
76537;DHT22;65381;51.254;15.592;2023-04-09T02:27:20;3.00;68.90
76537;DHT22;65381;51.254;15.592;2023-04-09T02:29:49;3.00;69.00
76537;DHT22;65381;51.254;15.592;2023-04-09T02:32:17;3.00;69.00
76537;DHT22;65381;51.254;15.592;2023-04-09T02:34:45;3.00;69.00
76537;DHT22;65381;51.254;15.592;2023-04-09T02:37:13;3.00;69.00
76537;DHT22;65381;51.254;15.592;2023-04-09T02:39:42;3.00;69.00
76537;DHT22;65381;51.254;15.592;2023-04-09T02:42:10;3.00;69.10
76537;DHT22;65381;51.254;15.592;2023-04-09T02:44:39;3.00;69.10
76537;DHT22;65381;51.254;15.592;2023-04-09T02:47:07;3.00;69.10
76537;DHT22;65381;51.254;15.592;2023-04-09T02:49:37;3.00;69.10
76537;DHT22;65381;51.254;15.592;2023-04-09T02:52:05;2.90;69.10
76537;DHT22;65381;51.254;15.592;2023-04-09T02:54:33;2.90;69.00
76537;DHT22;65381;51.254;15.592;2023-04-09T02:57:01;2.90;69.10
76537;DHT22;65381;51.254;15.592;2023-04-09T02:59:29;2.90;69.10
76537;DHT22;65381;51.254;15.592;2023-04-09T03:01:59;2.90;69.10
76537;DHT22;65381;51.254;15.592;2023-04-09T03:04:28;2.80;69.10
76537;DHT22;65381;51.254;15.592;2023-04-09T03:06:57;2.80;69.20
76537;DHT22;65381;51.254;15.592;2023-04-09T03:09:25;2.80;69.20
76537;DHT22;65381;51.254;15.592;2023-04-09T03:11:53;2.80;69.30
76537;DHT22;65381;51.254;15.592;2023-04-09T03:14:23;2.80;69.30
76537;DHT22;65381;51.254;15.592;2023-04-09T03:16:51;2.90;69.30
76537;DHT22;65381;51.254;15.592;2023-04-09T03:19:19;2.90;69.10
76537;DHT22;65381;51.254;15.592;2023-04-09T03:21:47;3.00;69.10
76537;DHT22;65381;51.254;15.592;2023-04-09T03:24:18;2.90;69.10
76537;DHT22;65381;51.254;15.592;2023-04-09T03:26:46;2.90;69.10
76537;DHT22;65381;51.254;15.592;2023-04-09T03:29:15;3.00;69.20
76537;DHT22;65381;51.254;15.592;2023-04-09T03:31:43;2.90;69.30
76537;DHT22;65381;51.254;15.592;2023-04-09T03:34:11;2.90;69.40
76537;DHT22;65381;51.254;15.592;2023-04-09T03:36:39;3.00;69.30
76537;DHT22;65381;51.254;15.592;2023-04-09T03:39:17;3.00;69.20
76537;DHT22;65381;51.254;15.592;2023-04-09T03:41:45;3.00;69.20
76537;DHT22;65381;51.254;15.592;2023-04-09T03:44:15;3.00;69.20
76537;DHT22;65381;51.254;15.592;2023-04-09T03:47:02;3.00;69.20
76537;DHT22;65381;51.254;15.592;2023-04-09T03:49:30;3.00;69.20
76537;DHT22;65381;51.254;15.592;2023-04-09T03:52:07;2.90;69.30
76537;DHT22;65381;51.254;15.592;2023-04-09T03:54:39;2.90;69.40
76537;DHT22;65381;51.254;15.592;2023-04-09T03:57:12;3.00;69.30
76537;DHT22;65381;51.254;15.592;2023-04-09T03:59:43;2.90;69.30
76537;DHT22;65381;51.254;15.592;2023-04-09T04:02:15;2.90;69.40
76537;DHT22;65381;51.254;15.592;2023-04-09T04:04:48;2.90;69.30
76537;DHT22;65381;51.254;15.592;2023-04-09T04:07:16;2.90;69.40
76537;DHT22;65381;51.254;15.592;2023-04-09T04:09:52;2.90;69.40
76537;DHT22;65381;51.254;15.592;2023-04-09T04:12:20;2.90;69.40
76537;DHT22;65381;51.254;15.592;2023-04-09T04:15:08;2.90;69.50
76537;DHT22;65381;51.254;15.592;2023-04-09T04:17:46;3.00;69.50
76537;DHT22;65381;51.254;15.592;2023-04-09T04:20:37;3.00;69.40
76537;DHT22;65381;51.254;15.592;2023-04-09T04:23:10;3.00;69.40
76537;DHT22;65381;51.254;15.592;2023-04-09T04:25:46;3.00;69.40
76537;DHT22;65381;51.254;15.592;2023-04-09T04:28:21;3.00;69.50
76537;DHT22;65381;51.254;15.592;2023-04-09T04:30:50;3.00;69.50
76537;DHT22;65381;51.254;15.592;2023-04-09T04:33:18;3.00;69.50
76537;DHT22;65381;51.254;15.592;2023-04-09T04:35:51;3.00;69.60
76537;DHT22;65381;51.254;15.592;2023-04-09T04:38:41;3.00;69.50
76537;DHT22;65381;51.254;15.592;2023-04-09T04:41:18;3.00;69.60
76537;DHT22;65381;51.254;15.592;2023-04-09T04:44:03;3.00;69.60
76537;DHT22;65381;51.254;15.592;2023-04-09T04:46:31;3.00;69.60
76537;DHT22;65381;51.254;15.592;2023-04-09T04:48:59;3.00;69.60
76537;DHT22;65381;51.254;15.592;2023-04-09T04:51:32;2.90;69.70
76537;DHT22;65381;51.254;15.592;2023-04-09T04:54:08;2.80;69.90
76537;DHT22;65381;51.254;15.592;2023-04-09T04:56:37;2.80;70.10
76537;DHT22;65381;51.254;15.592;2023-04-09T04:59:14;2.80;70.10
76537;DHT22;65381;51.254;15.592;2023-04-09T05:01:56;2.90;70.20
76537;DHT22;65381;51.254;15.592;2023-04-09T05:04:25;2.90;70.30
76537;DHT22;65381;51.254;15.592;2023-04-09T05:06:57;2.90;70.30
76537;DHT22;65381;51.254;15.592;2023-04-09T05:09:25;3.00;70.40
76537;DHT22;65381;51.254;15.592;2023-04-09T05:11:59;3.10;70.40
76537;DHT22;65381;51.254;15.592;2023-04-09T05:14:27;3.10;70.30
76537;DHT22;65381;51.254;15.592;2023-04-09T05:16:55;3.20;70.30
76537;DHT22;65381;51.254;15.592;2023-04-09T05:19:33;3.30;70.20
76537;DHT22;65381;51.254;15.592;2023-04-09T05:22:02;3.40;70.10
76537;DHT22;65381;51.254;15.592;2023-04-09T05:24:30;3.50;70.10
76537;DHT22;65381;51.254;15.592;2023-04-09T05:26:58;3.50;70.00
76537;DHT22;65381;51.254;15.592;2023-04-09T05:29:27;3.60;70.00
76537;DHT22;65381;51.254;15.592;2023-04-09T05:31:55;3.70;69.80
76537;DHT22;65381;51.254;15.592;2023-04-09T05:34:29;3.70;69.90
76537;DHT22;65381;51.254;15.592;2023-04-09T05:36:58;3.80;70.00
76537;DHT22;65381;51.254;15.592;2023-04-09T05:39:25;3.80;70.00
76537;DHT22;65381;51.254;15.592;2023-04-09T05:41:54;3.90;70.10
76537;DHT22;65381;51.254;15.592;2023-04-09T05:44:25;3.90;70.10
76537;DHT22;65381;51.254;15.592;2023-04-09T05:47:00;4.00;70.20
76537;DHT22;65381;51.254;15.592;2023-04-09T05:49:35;4.20;70.20
76537;DHT22;65381;51.254;15.592;2023-04-09T05:52:09;4.40;70.10
76537;DHT22;65381;51.254;15.592;2023-04-09T05:54:37;4.50;70.00
76537;DHT22;65381;51.254;15.592;2023-04-09T05:57:07;4.70;70.00
76537;DHT22;65381;51.254;15.592;2023-04-09T05:59:38;4.90;69.80
76537;DHT22;65381;51.254;15.592;2023-04-09T06:02:06;4.90;69.80
76537;DHT22;65381;51.254;15.592;2023-04-09T06:04:34;5.00;69.90
76537;DHT22;65381;51.254;15.592;2023-04-09T06:07:02;5.00;69.80
76537;DHT22;65381;51.254;15.592;2023-04-09T06:09:31;5.10;69.90
76537;DHT22;65381;51.254;15.592;2023-04-09T06:12:00;5.30;70.20
76537;DHT22;65381;51.254;15.592;2023-04-09T06:14:29;5.50;70.10
76537;DHT22;65381;51.254;15.592;2023-04-09T06:16:59;5.70;70.00
76537;DHT22;65381;51.254;15.592;2023-04-09T06:19:28;5.80;69.90
76537;DHT22;65381;51.254;15.592;2023-04-09T06:21:57;6.00;69.70
76537;DHT22;65381;51.254;15.592;2023-04-09T06:24:27;6.00;69.80
76537;DHT22;65381;51.254;15.592;2023-04-09T06:26:54;6.20;69.90
76537;DHT22;65381;51.254;15.592;2023-04-09T06:29:22;6.40;69.60
76537;DHT22;65381;51.254;15.592;2023-04-09T06:31:50;6.40;69.70
76537;DHT22;65381;51.254;15.592;2023-04-09T06:34:18;6.50;69.80
76537;DHT22;65381;51.254;15.592;2023-04-09T06:36:46;6.70;70.00
76537;DHT22;65381;51.254;15.592;2023-04-09T06:39:14;7.00;70.20
76537;DHT22;65381;51.254;15.592;2023-04-09T06:41:42;7.40;69.70
76537;DHT22;65381;51.254;15.592;2023-04-09T06:44:22;7.50;69.70
76537;DHT22;65381;51.254;15.592;2023-04-09T06:46:50;7.90;70.00
76537;DHT22;65381;51.254;15.592;2023-04-09T06:49:21;8.20;69.70
76537;DHT22;65381;51.254;15.592;2023-04-09T06:51:49;8.30;69.00
76537;DHT22;65381;51.254;15.592;2023-04-09T06:54:20;8.30;69.30
76537;DHT22;65381;51.254;15.592;2023-04-09T06:56:48;8.50;69.30
76537;DHT22;65381;51.254;15.592;2023-04-09T06:59:16;8.50;68.80
76537;DHT22;65381;51.254;15.592;2023-04-09T07:01:44;8.40;68.90
76537;DHT22;65381;51.254;15.592;2023-04-09T07:04:12;8.20;68.70
76537;DHT22;65381;51.254;15.592;2023-04-09T07:06:42;8.10;69.10
76537;DHT22;65381;51.254;15.592;2023-04-09T07:09:10;8.10;69.20
76537;DHT22;65381;51.254;15.592;2023-04-09T07:11:38;8.10;69.30
76537;DHT22;65381;51.254;15.592;2023-04-09T07:14:06;8.20;69.40
76537;DHT22;65381;51.254;15.592;2023-04-09T07:16:34;8.30;69.50
76537;DHT22;65381;51.254;15.592;2023-04-09T07:19:02;8.60;69.60
76537;DHT22;65381;51.254;15.592;2023-04-09T07:21:30;8.90;69.50
76537;DHT22;65381;51.254;15.592;2023-04-09T07:23:59;9.10;69.00
76537;DHT22;65381;51.254;15.592;2023-04-09T07:26:27;9.20;68.90
76537;DHT22;65381;51.254;15.592;2023-04-09T07:28:57;9.30;68.90
76537;DHT22;65381;51.254;15.592;2023-04-09T07:31:24;9.50;69.00
76537;DHT22;65381;51.254;15.592;2023-04-09T07:33:53;9.80;68.70
76537;DHT22;65381;51.254;15.592;2023-04-09T07:36:21;9.90;68.50
76537;DHT22;65381;51.254;15.592;2023-04-09T07:38:49;10.10;68.60
76537;DHT22;65381;51.254;15.592;2023-04-09T07:41:18;10.20;68.10
76537;DHT22;65381;51.254;15.592;2023-04-09T07:43:46;10.30;68.20
76537;DHT22;65381;51.254;15.592;2023-04-09T07:46:21;10.30;67.70
76537;DHT22;65381;51.254;15.592;2023-04-09T07:48:49;10.00;67.80
76537;DHT22;65381;51.254;15.592;2023-04-09T07:51:19;10.00;68.30
76537;DHT22;65381;51.254;15.592;2023-04-09T07:53:47;10.20;68.50
76537;DHT22;65381;51.254;15.592;2023-04-09T07:56:15;10.40;68.30
76537;DHT22;65381;51.254;15.592;2023-04-09T07:58:43;10.60;67.90
76537;DHT22;65381;51.254;15.592;2023-04-09T08:01:11;10.60;67.60
76537;DHT22;65381;51.254;15.592;2023-04-09T08:03:39;10.70;68.00
76537;DHT22;65381;51.254;15.592;2023-04-09T08:06:08;11.00;68.00
76537;DHT22;65381;51.254;15.592;2023-04-09T08:08:36;11.30;67.80
76537;DHT22;65381;51.254;15.592;2023-04-09T08:11:04;11.50;67.50
76537;DHT22;65381;51.254;15.592;2023-04-09T08:13:33;11.70;67.40
76537;DHT22;65381;51.254;15.592;2023-04-09T08:16:02;11.80;67.20
76537;DHT22;65381;51.254;15.592;2023-04-09T08:18:30;11.70;66.90
76537;DHT22;65381;51.254;15.592;2023-04-09T08:20:58;11.50;66.70
76537;DHT22;65381;51.254;15.592;2023-04-09T08:23:31;11.50;67.20
76537;DHT22;65381;51.254;15.592;2023-04-09T08:25:58;11.50;67.00
76537;DHT22;65381;51.254;15.592;2023-04-09T08:28:26;11.60;67.40
76537;DHT22;65381;51.254;15.592;2023-04-09T08:30:54;12.00;67.30
76537;DHT22;65381;51.254;15.592;2023-04-09T08:33:22;12.40;66.90
76537;DHT22;65381;51.254;15.592;2023-04-09T08:35:51;12.50;66.40
76537;DHT22;65381;51.254;15.592;2023-04-09T08:38:19;12.70;66.50
76537;DHT22;65381;51.254;15.592;2023-04-09T08:40:47;12.90;66.00
76537;DHT22;65381;51.254;15.592;2023-04-09T08:43:15;12.90;66.00
76537;DHT22;65381;51.254;15.592;2023-04-09T08:45:45;13.30;66.00
76537;DHT22;65381;51.254;15.592;2023-04-09T08:48:14;13.50;65.80
76537;DHT22;65381;51.254;15.592;2023-04-09T08:50:45;13.70;65.60
76537;DHT22;65381;51.254;15.592;2023-04-09T08:53:14;13.90;65.40
76537;DHT22;65381;51.254;15.592;2023-04-09T08:55:44;13.90;64.80
76537;DHT22;65381;51.254;15.592;2023-04-09T08:58:13;13.80;65.00
76537;DHT22;65381;51.254;15.592;2023-04-09T09:00:41;13.60;65.00
76537;DHT22;65381;51.254;15.592;2023-04-09T09:03:10;13.60;65.20
76537;DHT22;65381;51.254;15.592;2023-04-09T09:05:43;13.60;64.90
76537;DHT22;65381;51.254;15.592;2023-04-09T09:08:21;13.50;64.80
76537;DHT22;65381;51.254;15.592;2023-04-09T09:10:49;13.30;64.70
76537;DHT22;65381;51.254;15.592;2023-04-09T09:13:19;13.10;64.90
76537;DHT22;65381;51.254;15.592;2023-04-09T09:15:50;13.10;65.00
76537;DHT22;65381;51.254;15.592;2023-04-09T09:18:37;13.00;64.80
76537;DHT22;65381;51.254;15.592;2023-04-09T09:21:10;12.90;64.90
76537;DHT22;65381;51.254;15.592;2023-04-09T09:23:38;12.80;64.90
76537;DHT22;65381;51.254;15.592;2023-04-09T09:26:26;12.70;64.80
76537;DHT22;65381;51.254;15.592;2023-04-09T09:28:56;12.60;64.80
76537;DHT22;65381;51.254;15.592;2023-04-09T09:31:25;12.50;64.60
76537;DHT22;65381;51.254;15.592;2023-04-09T09:33:54;12.40;64.60
76537;DHT22;65381;51.254;15.592;2023-04-09T09:36:32;12.30;64.70
76537;DHT22;65381;51.254;15.592;2023-04-09T09:39:01;12.30;64.70
76537;DHT22;65381;51.254;15.592;2023-04-09T09:41:37;12.30;64.50
76537;DHT22;65381;51.254;15.592;2023-04-09T09:44:08;12.30;64.50
76537;DHT22;65381;51.254;15.592;2023-04-09T09:46:37;12.10;64.60
76537;DHT22;65381;51.254;15.592;2023-04-09T09:49:07;12.10;64.50
76537;DHT22;65381;51.254;15.592;2023-04-09T09:51:36;12.10;64.50
76537;DHT22;65381;51.254;15.592;2023-04-09T09:54:07;12.20;64.40
76537;DHT22;65381;51.254;15.592;2023-04-09T09:56:40;12.20;64.20
76537;DHT22;65381;51.254;15.592;2023-04-09T09:59:20;12.20;63.90
76537;DHT22;65381;51.254;15.592;2023-04-09T10:01:58;12.10;63.90
76537;DHT22;65381;51.254;15.592;2023-04-09T10:04:28;12.10;63.90
76537;DHT22;65381;51.254;15.592;2023-04-09T10:06:59;12.10;63.80
76537;DHT22;65381;51.254;15.592;2023-04-09T10:09:29;12.00;63.70
76537;DHT22;65381;51.254;15.592;2023-04-09T10:11:59;11.90;63.80
76537;DHT22;65381;51.254;15.592;2023-04-09T10:14:27;11.90;63.90
76537;DHT22;65381;51.254;15.592;2023-04-09T10:16:56;12.00;63.90
76537;DHT22;65381;51.254;15.592;2023-04-09T10:19:25;12.10;63.90
76537;DHT22;65381;51.254;15.592;2023-04-09T10:21:58;12.20;63.50
76537;DHT22;65381;51.254;15.592;2023-04-09T10:24:29;12.30;63.30
76537;DHT22;65381;51.254;15.592;2023-04-09T10:27:09;12.10;63.10
76537;DHT22;65381;51.254;15.592;2023-04-09T10:29:46;11.90;63.20
76537;DHT22;65381;51.254;15.592;2023-04-09T10:32:22;11.70;63.30
76537;DHT22;65381;51.254;15.592;2023-04-09T10:34:57;11.70;63.40
76537;DHT22;65381;51.254;15.592;2023-04-09T10:37:26;11.90;63.30
76537;DHT22;65381;51.254;15.592;2023-04-09T10:39:55;11.90;63.20
76537;DHT22;65381;51.254;15.592;2023-04-09T10:42:34;11.70;63.20
76537;DHT22;65381;51.254;15.592;2023-04-09T10:45:04;11.70;63.30
76537;DHT22;65381;51.254;15.592;2023-04-09T10:47:35;11.90;63.30
76537;DHT22;65381;51.254;15.592;2023-04-09T10:52:42;12.00;63.00
76537;DHT22;65381;51.254;15.592;2023-04-09T10:55:36;12.20;63.10
76537;DHT22;65381;51.254;15.592;2023-04-09T10:58:05;12.30;62.70
76537;DHT22;65381;51.254;15.592;2023-04-09T11:00:39;12.30;62.90
76537;DHT22;65381;51.254;15.592;2023-04-09T11:05:36;12.70;62.60
76537;DHT22;65381;51.254;15.592;2023-04-09T11:10:32;13.30;62.40
76537;DHT22;65381;51.254;15.592;2023-04-09T11:13:01;13.40;62.10
76537;DHT22;65381;51.254;15.592;2023-04-09T11:15:31;13.50;62.20
76537;DHT22;65381;51.254;15.592;2023-04-09T11:17:59;13.70;62.20
76537;DHT22;65381;51.254;15.592;2023-04-09T11:20:28;14.20;62.20
76537;DHT22;65381;51.254;15.592;2023-04-09T11:22:58;14.70;61.90
76537;DHT22;65381;51.254;15.592;2023-04-09T11:25:30;15.20;61.40
76537;DHT22;65381;51.254;15.592;2023-04-09T11:27:59;15.80;61.30
76537;DHT22;65381;51.254;15.592;2023-04-09T11:30:27;16.40;60.70
76537;DHT22;65381;51.254;15.592;2023-04-09T11:32:56;16.50;60.20
76537;DHT22;65381;51.254;15.592;2023-04-09T11:35:24;16.50;60.20
76537;DHT22;65381;51.254;15.592;2023-04-09T11:37:52;16.60;60.20
76537;DHT22;65381;51.254;15.592;2023-04-09T11:40:26;16.70;60.20
76537;DHT22;65381;51.254;15.592;2023-04-09T11:42:55;16.60;59.70
76537;DHT22;65381;51.254;15.592;2023-04-09T11:45:28;16.20;59.50
76537;DHT22;65381;51.254;15.592;2023-04-09T11:47:56;15.80;60.00
76537;DHT22;65381;51.254;15.592;2023-04-09T11:50:25;15.80;60.30
76537;DHT22;65381;51.254;15.592;2023-04-09T11:52:53;15.80;60.20
76537;DHT22;65381;51.254;15.592;2023-04-09T11:55:26;15.80;60.10
76537;DHT22;65381;51.254;15.592;2023-04-09T11:57:59;15.60;59.80
76537;DHT22;65381;51.254;15.592;2023-04-09T12:00:28;15.40;60.00
76537;DHT22;65381;51.254;15.592;2023-04-09T12:03:03;15.30;59.90
76537;DHT22;65381;51.254;15.592;2023-04-09T12:05:33;15.20;59.80
76537;DHT22;65381;51.254;15.592;2023-04-09T12:08:03;15.00;59.80
76537;DHT22;65381;51.254;15.592;2023-04-09T12:10:36;14.90;59.60
76537;DHT22;65381;51.254;15.592;2023-04-09T12:13:08;14.80;59.70
76537;DHT22;65381;51.254;15.592;2023-04-09T12:15:38;14.50;59.70
76537;DHT22;65381;51.254;15.592;2023-04-09T12:18:15;14.30;59.70
76537;DHT22;65381;51.254;15.592;2023-04-09T12:20:45;14.20;59.90
76537;DHT22;65381;51.254;15.592;2023-04-09T12:23:15;14.20;59.80
76537;DHT22;65381;51.254;15.592;2023-04-09T12:25:43;14.10;59.70
76537;DHT22;65381;51.254;15.592;2023-04-09T12:28:13;13.90;59.70
76537;DHT22;65381;51.254;15.592;2023-04-09T12:30:45;13.80;59.70
76537;DHT22;65381;51.254;15.592;2023-04-09T12:33:14;13.70;59.80
76537;DHT22;65381;51.254;15.592;2023-04-09T12:35:42;13.90;59.80
76537;DHT22;65381;51.254;15.592;2023-04-09T12:38:10;13.90;59.60
76537;DHT22;65381;51.254;15.592;2023-04-09T12:40:39;13.90;59.30
76537;DHT22;65381;51.254;15.592;2023-04-09T12:43:07;13.80;59.50
76537;DHT22;65381;51.254;15.592;2023-04-09T12:45:35;13.90;59.50
76537;DHT22;65381;51.254;15.592;2023-04-09T12:48:03;13.90;59.40
76537;DHT22;65381;51.254;15.592;2023-04-09T12:50:31;13.90;59.50
76537;DHT22;65381;51.254;15.592;2023-04-09T12:52:59;14.00;59.40
76537;DHT22;65381;51.254;15.592;2023-04-09T12:55:28;14.10;59.20
76537;DHT22;65381;51.254;15.592;2023-04-09T12:57:56;14.20;59.10
76537;DHT22;65381;51.254;15.592;2023-04-09T13:00:25;14.10;59.10
76537;DHT22;65381;51.254;15.592;2023-04-09T13:02:57;14.00;59.10
76537;DHT22;65381;51.254;15.592;2023-04-09T13:05:26;14.00;59.00
76537;DHT22;65381;51.254;15.592;2023-04-09T13:07:54;13.90;59.00
76537;DHT22;65381;51.254;15.592;2023-04-09T13:10:22;13.60;59.00
76537;DHT22;65381;51.254;15.592;2023-04-09T13:12:49;13.50;59.10
76537;DHT22;65381;51.254;15.592;2023-04-09T13:15:18;13.30;59.20
76537;DHT22;65381;51.254;15.592;2023-04-09T13:17:46;13.10;59.30
76537;DHT22;65381;51.254;15.592;2023-04-09T13:20:14;13.10;59.30
76537;DHT22;65381;51.254;15.592;2023-04-09T13:22:44;12.80;59.40
76537;DHT22;65381;51.254;15.592;2023-04-09T13:25:15;12.70;59.60
76537;DHT22;65381;51.254;15.592;2023-04-09T13:27:44;12.70;59.70
76537;DHT22;65381;51.254;15.592;2023-04-09T13:30:13;12.80;59.60
76537;DHT22;65381;51.254;15.592;2023-04-09T13:32:41;12.70;59.40
76537;DHT22;65381;51.254;15.592;2023-04-09T13:35:11;12.50;59.60
76537;DHT22;65381;51.254;15.592;2023-04-09T13:37:39;12.50;59.70
76537;DHT22;65381;51.254;15.592;2023-04-09T13:40:09;12.60;59.60
76537;DHT22;65381;51.254;15.592;2023-04-09T13:42:37;12.60;59.70
76537;DHT22;65381;51.254;15.592;2023-04-09T13:45:05;12.70;59.60
76537;DHT22;65381;51.254;15.592;2023-04-09T13:47:33;12.70;59.60
76537;DHT22;65381;51.254;15.592;2023-04-09T13:50:02;12.80;59.70
76537;DHT22;65381;51.254;15.592;2023-04-09T13:52:31;12.90;59.60
76537;DHT22;65381;51.254;15.592;2023-04-09T13:54:59;12.90;59.50
76537;DHT22;65381;51.254;15.592;2023-04-09T13:57:27;12.90;59.60
76537;DHT22;65381;51.254;15.592;2023-04-09T13:59:56;13.00;59.50
76537;DHT22;65381;51.254;15.592;2023-04-09T14:02:23;13.00;59.40
76537;DHT22;65381;51.254;15.592;2023-04-09T14:04:52;12.90;59.40
76537;DHT22;65381;51.254;15.592;2023-04-09T14:07:21;12.90;59.50
76537;DHT22;65381;51.254;15.592;2023-04-09T14:09:49;12.80;59.50
76537;DHT22;65381;51.254;15.592;2023-04-09T14:12:17;12.70;59.50
76537;DHT22;65381;51.254;15.592;2023-04-09T14:14:45;12.50;59.50
76537;DHT22;65381;51.254;15.592;2023-04-09T14:17:13;12.50;59.60
76537;DHT22;65381;51.254;15.592;2023-04-09T14:19:41;12.30;59.70
76537;DHT22;65381;51.254;15.592;2023-04-09T14:22:09;12.10;59.80
76537;DHT22;65381;51.254;15.592;2023-04-09T14:24:39;11.90;59.90
76537;DHT22;65381;51.254;15.592;2023-04-09T14:27:07;11.70;60.10
76537;DHT22;65381;51.254;15.592;2023-04-09T14:29:35;11.70;60.20
76537;DHT22;65381;51.254;15.592;2023-04-09T14:32:03;11.50;60.20
76537;DHT22;65381;51.254;15.592;2023-04-09T14:34:31;11.40;60.30
76537;DHT22;65381;51.254;15.592;2023-04-09T14:36:59;11.30;60.50
76537;DHT22;65381;51.254;15.592;2023-04-09T14:39:27;11.20;60.60
76537;DHT22;65381;51.254;15.592;2023-04-09T14:41:55;11.10;60.70
76537;DHT22;65381;51.254;15.592;2023-04-09T14:44:24;11.10;60.70
76537;DHT22;65381;51.254;15.592;2023-04-09T14:46:52;11.10;60.70
76537;DHT22;65381;51.254;15.592;2023-04-09T14:49:21;11.20;60.60
76537;DHT22;65381;51.254;15.592;2023-04-09T14:51:49;11.20;60.60
76537;DHT22;65381;51.254;15.592;2023-04-09T14:54:18;11.20;60.70
76537;DHT22;65381;51.254;15.592;2023-04-09T14:56:45;11.10;60.70
76537;DHT22;65381;51.254;15.592;2023-04-09T14:59:14;11.10;60.90
76537;DHT22;65381;51.254;15.592;2023-04-09T15:01:42;11.20;60.90
76537;DHT22;65381;51.254;15.592;2023-04-09T15:04:10;11.30;60.90
76537;DHT22;65381;51.254;15.592;2023-04-09T15:06:38;11.20;60.90
76537;DHT22;65381;51.254;15.592;2023-04-09T15:09:06;11.30;61.00
76537;DHT22;65381;51.254;15.592;2023-04-09T15:11:34;11.30;61.00
76537;DHT22;65381;51.254;15.592;2023-04-09T15:14:02;11.30;61.10
76537;DHT22;65381;51.254;15.592;2023-04-09T15:16:31;11.30;61.20
76537;DHT22;65381;51.254;15.592;2023-04-09T15:19:00;11.40;61.10
76537;DHT22;65381;51.254;15.592;2023-04-09T15:21:29;11.30;61.10
76537;DHT22;65381;51.254;15.592;2023-04-09T15:23:58;11.30;61.10
76537;DHT22;65381;51.254;15.592;2023-04-09T15:26:26;11.30;61.10
76537;DHT22;65381;51.254;15.592;2023-04-09T15:29:05;11.20;61.10
76537;DHT22;65381;51.254;15.592;2023-04-09T15:31:33;11.10;61.20
76537;DHT22;65381;51.254;15.592;2023-04-09T15:34:02;11.10;61.10
76537;DHT22;65381;51.254;15.592;2023-04-09T15:36:29;11.10;61.20
76537;DHT22;65381;51.254;15.592;2023-04-09T15:39:00;11.10;61.30
76537;DHT22;65381;51.254;15.592;2023-04-09T15:41:28;11.10;61.40
76537;DHT22;65381;51.254;15.592;2023-04-09T15:43:58;11.10;61.40
76537;DHT22;65381;51.254;15.592;2023-04-09T15:46:26;11.10;61.50
76537;DHT22;65381;51.254;15.592;2023-04-09T15:48:55;11.10;61.50
76537;DHT22;65381;51.254;15.592;2023-04-09T15:51:22;11.30;61.50
76537;DHT22;65381;51.254;15.592;2023-04-09T15:53:52;11.30;61.30